Latest Weather Observations for Cessnock Airport

IDN60801

Issued at 9:04 am EDT Tuesday 27 October 2020 (issued every 10 minutes, with the page automatically refreshed every 10 minutes)

About weather observations | Map of weather stations | Latest weather observations for NSW | Other Formats
Station Details ID: 061260 Name: CESSNOCK AIRPORT AWS Lat: -32.79 Lon: 151.34 Height: 61.0 m
Data from the previous 72 hours. | See also: Recent months at Cessnock Airport
Date/Time
EDT
Temp
°C
App
Temp
°C
Dew
Point
°C
Rel
Hum
%
Delta-T
°C
Wind Press
QNH
hPa
Press
MSL
hPa
Rain since
9am
mm
Dir  Spd
km/h
Gust
km/h
Spd
kts
Gust
kts
27/09:00am 15.1 13.4 12.4 84 1.5 SW 13 19 7 10 1019.3 1019.2 7.6
27/08:30am 14.5 12.6 11.7 83 1.5 SW 13 20 7 11 1019.2 1019.1 7.6
27/08:00am 14.3 12.3 11.5 83 1.5 SW 13 19 7 10 1018.9 1018.8 7.6
27/07:30am 14.0 12.3 11.3 84 1.4 SW 11 17 6 9 1018.5 1018.4 7.6
27/07:00am 13.7 12.0 11.2 85 1.3 SW 11 17 6 9 1018.2 1018.1 7.6
27/06:30am 13.5 11.4 11.0 85 1.3 SW 13 20 7 11 1017.6 1017.5 7.6
27/06:00am 13.3 11.9 10.8 85 1.3 SW 9 15 5 8 1017.3 1017.2 7.6
27/05:30am 13.1 11.7 10.8 86 1.2 SW 9 15 5 8 1017.0 1016.9 7.6
27/05:00am 13.0 11.5 10.7 86 1.2 SW 9 17 5 9 1017.1 1017.0 7.6
27/04:30am 13.0 10.8 10.7 86 1.2 SSW 13 20 7 11 1017.0 1016.9 7.6
27/04:00am 13.0 10.8 10.7 86 1.2 SW 13 19 7 10 1017.1 1017.0 7.6
27/03:30am 13.2 11.0 10.7 85 1.3 SW 13 20 7 11 1017.2 1017.1 7.6
27/03:00am 13.3 10.7 10.8 85 1.3 SW 15 24 8 13 1017.4 1017.3 7.6
27/02:30am 13.3 11.1 10.8 85 1.3 SW 13 20 7 11 1017.4 1017.3 7.6
27/02:00am 13.2 11.4 10.9 86 1.2 SW 11 17 6 9 1017.5 1017.4 7.6
27/01:30am 13.4 11.7 11.1 86 1.2 SW 11 17 6 9 1017.6 1017.5 7.6
27/01:00am 13.3 10.8 11.0 86 1.2 SW 15 22 8 12 1017.9 1017.8 7.6
27/12:30am 13.4 11.3 11.1 86 1.2 SW 13 19 7 10 1018.1 1018.0 7.6
27/12:00am 13.4 11.3 11.1 86 1.2 SW 13 20 7 11 1018.2 1018.1 7.6
 
Date/Time
EDT
Temp
°C
App
Temp
°C
Dew
Point
°C
Rel
Hum
%
Delta-T
°C
Wind Press
QNH
hPa
Press
MSL
hPa
Rain since
9am
mm
Dir  Spd
km/h
Gust
km/h
Spd
kts
Gust
kts
26/11:30pm 13.4 10.9 11.1 86 1.2 SSW 15 24 8 13 1018.3 1018.2 7.6
26/11:00pm 13.6 11.6 11.5 87 1.1 SW 13 19 7 10 1018.6 1018.5 7.6
26/10:30pm 13.7 11.7 11.4 86 1.2 SSW 13 20 7 11 1018.4 1018.3 7.6
26/10:00pm 13.7 11.0 11.6 87 1.1 SSW 17 24 9 13 1018.5 1018.4 7.6
26/09:30pm 13.6 10.9 11.7 88 1.0 SSW 17 26 9 14 1018.3 1018.2 7.6
26/09:00pm 13.6 11.7 11.7 88 1.0 SSW 13 22 7 12 1018.3 1018.2 7.4
26/08:30pm 13.6 11.3 11.7 88 1.0 SSW 15 22 8 12 1017.9 1017.8 7.4
26/08:00pm 13.6 11.4 12.0 90 0.9 SSW 15 20 8 11 1017.4 1017.3 7.4
26/07:30pm 13.6 11.4 12.2 91 0.8 SSW 15 22 8 12 1017.2 1017.1 7.4
26/07:00pm 13.8 11.7 12.5 92 0.7 SSW 15 20 8 11 1016.8 1016.7 7.4
26/06:30pm 14.1 12.5 12.8 92 0.7 SSW 13 17 7 9 1016.6 1016.5 6.8
26/06:00pm 14.3 13.4 12.7 90 0.9 SW 9 15 5 8 1016.3 1016.2 6.6
26/05:30pm 14.6 12.5 12.5 87 1.1 SSW 15 26 8 14 1015.6 1015.5 6.6
26/05:00pm 14.5 11.5 12.7 89 1.0 S 20 35 11 19 1015.3 1015.2 6.6
26/04:30pm 15.0 13.2 13.4 90 0.9 SSW 15 26 8 14 1015.0 1014.9 6.6
26/04:00pm 15.4 12.3 13.4 88 1.1 S 22 32 12 17 1014.5 1014.4 6.6
26/03:30pm 15.6 13.3 14.1 91 0.9 S 19 26 10 14 1014.5 1014.4 6.4
26/03:00pm 15.6 13.1 14.1 91 0.9 SSE 20 33 11 18 1014.7 1014.6 5.4
26/02:30pm 14.5 10.1 12.9 90 0.9 S 28 39 15 21 1014.4 1014.3 5.2
26/02:00pm 14.8 12.1 13.5 92 0.7 S 20 28 11 15 1014.6 1014.5 4.4
26/01:30pm 15.0 12.0 13.7 92 0.7 SSW 22 28 12 15 1014.4 1014.3 3.6
26/01:00pm 14.8 11.6 13.2 90 0.9 S 22 33 12 18 1014.8 1014.7 2.8
26/12:30pm 15.3 11.0 13.2 87 1.2 S 28 46 15 25 1014.7 1014.6 2.4
26/12:27pm 15.2 10.8 12.9 86 1.3 S 28 46 15 25 1014.7 1014.6 2.4
26/12:00pm 15.4 12.0 13.6 89 1.0 S 24 32 13 17 1014.8 1014.7 2.4
26/11:30am 15.7 12.9 14.2 91 0.9 S 22 35 12 19 1014.8 1014.7 2.4
26/11:00am 15.1 12.5 13.8 92 0.7 S 20 30 11 16 1015.1 1015.0 2.2
26/10:30am 14.7 12.6 13.7 94 0.6 SSW 17 28 9 15 1015.2 1015.1 2.0
26/10:00am 14.6 12.1 13.5 93 0.6 SSW 19 26 10 14 1014.9 1014.8 1.4
26/09:30am 15.3 11.3 14.0 92 0.7 S 28 37 15 20 1014.8 1014.7 1.0
26/09:00am 15.7 13.3 14.4 92 0.7 S 20 32 11 17 1014.6 1014.5 20.2
26/08:30am 15.8 12.2 14.2 90 0.9 SSE 26 48 14 26 1014.2 1014.1 20.0
26/08:00am 15.5 13.7 14.5 94 0.6 SSE 17 22 9 12 1014.0 1013.9 19.0
26/07:30am 15.7 13.3 14.4 92 0.7 SSE 20 39 11 21 1013.7 1013.6 18.2
26/07:00am 15.5 14.4 14.4 93 0.6 SE 13 26 7 14 1013.5 1013.4 17.4
26/06:30am 15.8 12.7 14.5 92 0.7 SSE 24 37 13 20 1012.9 1012.8 16.6
26/06:00am 15.6 13.5 14.6 94 0.6 SSE 19 30 10 16 1012.7 1012.6 16.4
26/05:30am 15.1 13.7 14.6 97 0.3 S 15 26 8 14 1012.2 1012.1 16.4
26/05:00am 14.2 13.3 13.6 96 0.3 SSW 11 17 6 9 1012.5 1012.4 15.8
26/04:30am 14.0 12.9 13.2 95 0.4 SSW 11 19 6 10 1012.4 1012.3 14.4
26/04:00am 13.8 12.6 12.9 94 0.5 SSE 11 15 6 8 1012.5 1012.4 12.8
26/03:30am 13.9 11.8 12.5 91 0.8 SSW 15 26 8 14 1012.3 1012.2 12.0
26/03:00am 13.9 10.9 12.1 89 1.0 SW 19 32 10 17 1012.0 1011.9 11.8
26/02:30am 13.8 11.2 12.0 89 1.0 SSW 17 24 9 13 1012.1 1012.0 11.6
26/02:00am 14.1 11.1 11.8 86 1.2 SSW 19 30 10 16 1012.3 1012.2 11.6
26/01:30am 14.6 12.0 12.1 85 1.4 SSW 17 24 9 13 1012.9 1012.8 11.6
26/01:00am 14.0 12.9 11.9 87 1.1 WSW 9 15 5 8 1013.3 1013.2 11.6
26/12:30am 14.0 11.7 11.9 87 1.1 SSW 15 24 8 13 1013.3 1013.2 11.6
26/12:00am 14.0 11.7 11.7 86 1.2 SW 15 26 8 14 1013.8 1013.7 11.4
 
Date/Time
EDT
Temp
°C
App
Temp
°C
Dew
Point
°C
Rel
Hum
%
Delta-T
°C
Wind Press
QNH
hPa
Press
MSL
hPa
Rain since
9am
mm
Dir  Spd
km/h
Gust
km/h
Spd
kts
Gust
kts
25/11:30pm 14.1 12.9 11.6 85 1.3 SW 9 19 5 10 1013.9 1013.8 11.4
25/11:00pm 13.8 11.9 11.7 87 1.1 SW 13 20 7 11 1013.8 1013.7 11.2
25/10:30pm 13.7 11.7 11.6 87 1.1 SSW 13 20 7 11 1014.0 1013.9 11.2
25/10:00pm 13.7 12.1 11.6 87 1.1 SW 11 22 6 12 1014.4 1014.3 11.2
25/09:30pm 13.3 11.3 11.5 89 1.0 SSW 13 19 7 10 1014.2 1014.1 11.2
25/09:00pm 13.3 11.4 11.9 91 0.8 SSW 13 19 7 10 1014.4 1014.3 11.2
25/08:30pm 13.5 12.9 12.2 92 0.7 W 7 11 4 6 1014.6 1014.5 11.2
25/08:00pm 13.7 12.6 12.1 90 0.9 W 9 13 5 7 1014.2 1014.1 10.8
25/07:45pm 13.5 12.1 12.1 91 0.8 WNW 11 17 6 9 1014.2 1014.1 10.8
25/07:30pm 13.5 10.9 11.9 90 0.9 SSE 17 20 9 11 1012.2 1012.1 10.6
25/07:27pm 13.5 11.2 11.9 90 0.9 S 15 20 8 11 1011.7 1011.6 10.6
25/07:00pm 13.9 14.2 12.3 90 0.9 NE 2 7 1 4 1013.7 1013.6 10.6
25/06:30pm 13.3 12.6 12.0 92 0.7 SSW 7 13 4 7 1013.2 1013.1 10.6
25/06:00pm 12.9 11.4 12.0 94 0.5 SSW 11 19 6 10 1012.6 1012.5 9.8
25/05:30pm 13.3 12.3 12.2 93 0.6 S 9 13 5 7 1012.7 1012.6 7.2
25/05:00pm 13.6 12.5 12.0 90 0.9 SSW 9 15 5 8 1013.2 1013.1 4.4
25/04:30pm 14.1 12.4 12.5 90 0.9 SSW 13 20 7 11 1012.5 1012.4 3.4
25/04:00pm 14.6 12.5 12.3 86 1.3 S 15 22 8 12 1012.5 1012.4 3.0
25/03:30pm 15.2 12.7 12.3 83 1.6 SSW 17 26 9 14 1012.1 1012.0 2.6
25/03:00pm 15.6 12.5 12.2 80 1.9 SSE 20 28 11 15 1012.2 1012.1 2.6
25/02:30pm 15.8 12.2 12.9 83 1.6 S 24 33 13 18 1012.0 1011.9 2.4
25/02:00pm 15.7 12.7 12.6 82 1.7 S 20 28 11 15 1012.2 1012.1 2.4
25/01:30pm 15.8 14.1 13.6 87 1.2 S 15 24 8 13 1012.4 1012.3 2.4
25/01:00pm 15.4 13.6 13.4 88 1.1 S 15 20 8 11 1012.5 1012.4 2.4
25/12:30pm 15.5 14.3 13.9 90 0.9 S 13 20 7 11 1012.4 1012.3 2.2
25/12:00pm 15.2 14.2 13.4 89 1.0 S 11 13 6 7 1012.4 1012.3 1.6
25/11:30am 15.2 14.7 13.7 91 0.8 SSW 9 15 5 8 1012.4 1012.3 1.0
25/11:00am 15.3 12.6 13.0 86 1.3 S 19 30 10 16 1012.3 1012.2 0.0
25/10:30am 15.4 12.9 12.2 81 1.7 S 17 24 9 13 1012.4 1012.3 0.0
25/10:00am 15.4 13.2 12.2 81 1.8 S 15 20 8 11 1012.2 1012.1 0.0
25/09:30am 15.7 13.3 12.5 81 1.8 SSE 17 22 9 12 1011.9 1011.8 0.0
25/09:00am 15.7 13.1 13.2 85 1.4 SSE 19 26 10 14 1011.4 1011.3 28.4
25/08:30am 15.7 13.9 13.2 85 1.4 S 15 22 8 12 1010.9 1010.8 28.4
25/08:00am 15.8 13.1 12.9 83 1.6 S 19 28 10 15 1010.6 1010.5 28.4
25/07:30am 15.9 13.7 13.4 85 1.4 S 17 24 9 13 1010.1 1010.0 28.4
25/07:00am 15.7 14.3 13.5 87 1.2 S 13 19 7 10 1009.5 1009.3 28.4
25/06:30am 15.5 15.0 13.9 90 0.9 SSW 9 15 5 8 1008.9 1008.7 28.4
25/06:00am 15.6 14.8 14.0 90 0.9 S 11 15 6 8 1008.3 1008.1 28.2
25/05:30am 15.6 15.6 14.3 92 0.7 SSW 7 9 4 5 1007.9 1007.7 28.2
25/05:00am 15.6 15.3 14.5 93 0.6 S 9 13 5 7 1007.5 1007.3 28.2
25/04:30am 15.9 15.2 14.3 90 0.9 S 11 17 6 9 1007.5 1007.3 27.8
25/04:00am 16.4 16.3 14.9 91 0.9 S 9 15 5 8 1007.0 1006.8 27.6
25/03:30am 16.8 15.7 15.3 91 0.9 SSE 15 22 8 12 1006.6 1006.4 27.6
25/03:00am 16.6 15.8 16.0 96 0.4 SE 15 19 8 10 1006.3 1006.1 27.6
25/02:30am 16.8 18.5 16.2 96 0.4 NNE 2 7 1 4 1005.5 1005.4 27.6
25/02:00am 16.5 18.0 15.7 95 0.5 E 2 6 1 3 1005.7 1005.5 27.6
25/01:30am 16.3 16.7 15.2 93 0.6 SSE 7 11 4 6 1005.5 1005.4 27.6
25/01:00am 17.4 17.6 15.7 90 1.0 N 9 13 5 7 1005.1 1005.0 27.6
25/12:30am 16.9 17.6 16.1 95 0.5 N 7 9 4 5 1005.3 1005.2 27.6
25/12:00am 16.8 18.9 16.2 96 0.4 CALM 0 0 0 0 1005.1 1005.0 27.6
 
Date/Time
EDT
Temp
°C
App
Temp
°C
Dew
Point
°C
Rel
Hum
%
Delta-T
°C
Wind Press
QNH
hPa
Press
MSL
hPa
Rain since
9am
mm
Dir  Spd
km/h
Gust
km/h
Spd
kts
Gust
kts
24/11:30pm 16.9 18.3 16.3 96 0.4 NNE 4 7 2 4 1004.7 1004.6 27.6
24/11:00pm 16.9 17.3 16.3 96 0.4 NNE 9 13 5 7 1004.6 1004.5 27.6
24/10:30pm 16.9 17.3 16.3 96 0.4 N 9 11 5 6 1005.0 1004.9 27.6
24/10:00pm 17.0 17.0 16.2 95 0.5 N 11 15 6 8 1005.5 1005.4 27.6
24/09:30pm 16.9 17.2 16.1 95 0.5 NW 9 15 5 8 1005.9 1005.7 27.6
24/09:00pm 17.2 17.6 16.4 95 0.5 N 9 15 5 8 1004.8 1004.7 27.0
24/08:30pm 17.5 18.4 16.7 95 0.5 N 7 13 4 7 1005.0 1004.9 25.6
24/08:00pm 17.9 18.5 16.9 94 0.6 NE 9 11 5 6 1004.9 1004.8 23.8
24/07:30pm 17.8 17.1 16.5 92 0.8 NW 15 28 8 15 1004.8 1004.7 23.2
24/07:00pm 20.8 23.6 19.6 93 0.8 W 4 15 2 8 1004.4 1004.3 9.8
24/06:30pm 21.0 23.3 19.5 91 1.0 N 6 6 3 3 1003.5 1003.4 9.8
24/06:00pm 21.1 23.4 19.4 90 1.1 N 6 7 3 4 1003.3 1003.2 9.8
24/05:30pm 21.2 23.3 19.3 89 1.2 N 7 9 4 5 1002.8 1002.7 9.8
24/05:00pm 21.2 22.7 19.8 92 0.9 N 11 15 6 8 1002.7 1002.6 9.8
24/04:30pm 20.8 23.6 19.6 93 0.8 N 4 7 2 4 1002.9 1002.8 9.8
24/04:00pm 20.3 22.5 19.1 93 0.8 NNE 6 7 3 4 1002.9 1002.8 9.8
24/03:30pm 20.0 22.4 18.8 93 0.8 NNW 4 9 2 5 1003.8 1003.7 8.8
24/03:00pm 20.0 22.0 18.8 93 0.8 NW 6 11 3 6 1003.9 1003.8 7.0
24/02:30pm 20.4 22.3 18.9 91 0.9 NW 7 11 4 6 1004.2 1004.1 4.6
24/02:00pm 20.8 22.6 19.5 92 0.8 NNW 9 19 5 10 1004.5 1004.4 2.4
24/01:30pm 21.3 22.2 19.2 88 1.3 NNW 13 20 7 11 1004.5 1004.4 1.4
24/01:00pm 22.6 22.7 18.4 77 2.6 N 15 22 8 12 1004.7 1004.6 0.0
24/12:30pm 23.5 24.3 19.0 76 2.9 N 13 20 7 11 1005.0 1004.9 0.0
24/12:00pm 22.7 23.8 18.9 79 2.4 NNW 11 19 6 10 1005.3 1005.2 0.0
24/11:30am 22.2 23.7 19.0 82 2.0 NNW 9 13 5 7 1005.8 1005.6 0.0
24/11:00am 22.2 23.5 18.4 79 2.4 N 9 13 5 7 1006.2 1006.0 0.0
24/10:30am 22.2 24.1 19.0 82 2.0 NE 7 11 4 6 1006.5 1006.3 0.0
24/10:00am 21.3 22.2 18.5 84 1.8 NNE 11 13 6 7 1006.8 1006.6 0.0
24/09:30am 20.6 22.3 18.5 88 1.3 N 7 9 4 5 1007.0 1006.8 0.0

Other formats

Comma delimited format used in spreadsheet applications
http://www.bom.gov.au/fwo/IDN60801/IDN60801.95771.axf

JavaScript Object Notation format (JSON) in row-major order
http://www.bom.gov.au/fwo/IDN60801/IDN60801.95771.json

Data quality

Most of these data are generated automatically and are frequently updated. Quality checks on data are not normally performed. It is possible for incorrect values to appear. Refer to information at About Latest Weather Observations and please check the disclaimer before using these data.